createdAt,value
2023-02-11T00:00:19.401Z,19.10
2023-02-11T00:02:54.772Z,19.00
2023-02-11T00:05:27.548Z,19.10
2023-02-11T00:07:58.338Z,19.40
2023-02-11T00:10:33.564Z,18.10
2023-02-11T00:13:07.237Z,17.60
2023-02-11T00:15:41.859Z,19.10
2023-02-11T00:18:23.291Z,20.00
2023-02-11T00:20:51.888Z,19.40
2023-02-11T00:23:21.251Z,18.80
2023-02-11T00:25:51.383Z,17.10
2023-02-11T00:28:53.990Z,18.80
2023-02-11T00:31:25.309Z,18.80
2023-02-11T00:33:55.758Z,18.40
2023-02-11T00:36:26.158Z,17.00
2023-02-11T00:38:59.482Z,20.20
2023-02-11T00:41:35.807Z,18.40
2023-02-11T00:44:05.480Z,19.30
2023-02-11T00:46:34.446Z,16.70
2023-02-11T00:49:03.154Z,19.50
2023-02-11T00:51:31.827Z,17.60
2023-02-11T00:54:00.327Z,20.30
2023-02-11T00:56:29.278Z,19.20
2023-02-11T00:58:57.412Z,19.00
2023-02-11T01:01:25.638Z,20.60
2023-02-11T01:03:54.700Z,21.00
2023-02-11T01:06:24.442Z,18.10
2023-02-11T01:08:52.405Z,18.80
2023-02-11T01:11:21.085Z,19.20
2023-02-11T01:13:49.535Z,22.60
2023-02-11T01:16:18.175Z,19.40
2023-02-11T01:18:47.294Z,18.90
2023-02-11T01:21:16.291Z,17.70
2023-02-11T01:23:44.382Z,19.30
2023-02-11T01:26:13.537Z,20.30
2023-02-11T01:28:41.669Z,18.10
2023-02-11T01:31:09.795Z,19.40
2023-02-11T01:33:37.881Z,19.30
2023-02-11T01:36:07.745Z,18.00
2023-02-11T01:38:36.056Z,18.70
2023-02-11T01:41:06.607Z,16.70
2023-02-11T01:43:36.892Z,20.40
2023-02-11T01:46:25.234Z,17.40
2023-02-11T01:48:56.172Z,18.70
2023-02-11T01:51:27.336Z,20.30
2023-02-11T01:54:15.412Z,19.10
2023-02-11T01:57:05.645Z,17.40
2023-02-11T01:59:38.834Z,18.00
2023-02-11T02:02:09.510Z,19.40
2023-02-11T02:05:03.049Z,16.80
2023-02-11T02:15:53.493Z,18.30
2023-02-11T02:18:24.681Z,17.30
2023-02-11T02:20:53.006Z,18.20
2023-02-11T02:23:55.109Z,16.10
2023-02-11T02:26:53.086Z,19.00
2023-02-11T02:29:24.476Z,17.30
2023-02-11T02:32:13.872Z,17.30
2023-02-11T02:35:02.980Z,17.70
2023-02-11T02:37:38.298Z,16.40
2023-02-11T02:40:16.164Z,17.10
2023-02-11T02:42:45.518Z,20.70
2023-02-11T02:45:13.692Z,17.60
2023-02-11T02:47:43.610Z,18.80
2023-02-11T02:50:11.918Z,19.30
2023-02-11T02:53:02.782Z,18.90
2023-02-11T02:55:50.340Z,18.10
2023-02-11T02:58:31.487Z,19.70
2023-02-11T03:01:19.067Z,17.60
2023-02-11T03:04:03.674Z,20.60
2023-02-11T03:06:53.871Z,20.90
2023-02-11T03:09:26.534Z,20.20
2023-02-11T03:11:54.625Z,20.00
2023-02-11T03:14:22.808Z,21.20
2023-02-11T03:16:51.018Z,18.80
2023-02-11T03:19:21.851Z,22.30
2023-02-11T03:21:50.511Z,22.10
2023-02-11T03:24:30.674Z,21.40
2023-02-11T03:27:18.344Z,24.30
2023-02-11T03:30:08.291Z,20.90
2023-02-11T03:32:50.724Z,22.40
2023-02-11T03:35:24.702Z,20.20
2023-02-11T03:37:54.970Z,19.90
2023-02-11T03:40:45.772Z,21.30
2023-02-11T03:43:19.690Z,21.80
2023-02-11T03:45:47.832Z,20.50
2023-02-11T03:48:20.969Z,20.30
2023-02-11T03:50:49.344Z,22.60
2023-02-11T03:53:17.415Z,20.90
2023-02-11T03:55:45.789Z,20.30
2023-02-11T03:58:13.996Z,21.90
2023-02-11T04:00:42.966Z,21.60
2023-02-11T04:03:12.423Z,20.80
2023-02-11T04:05:40.557Z,16.40
2023-02-11T04:08:08.512Z,20.70
2023-02-11T04:10:36.556Z,21.00
2023-02-11T04:13:06.191Z,16.60
2023-02-11T04:15:34.559Z,17.80
2023-02-11T04:18:03.669Z,20.30
2023-02-11T04:20:32.716Z,21.70
2023-02-11T04:23:00.706Z,19.10
2023-02-11T04:25:29.327Z,19.70
2023-02-11T04:27:57.414Z,20.90
2023-02-11T04:30:25.675Z,20.60
2023-02-11T04:32:54.631Z,19.00
2023-02-11T04:35:23.219Z,20.40
2023-02-11T04:37:51.396Z,23.60
2023-02-11T04:40:19.375Z,23.90
2023-02-11T04:42:47.505Z,20.90
2023-02-11T04:45:15.487Z,21.40
2023-02-11T04:47:43.913Z,19.90
2023-02-11T04:50:11.888Z,19.90
2023-02-11T04:52:40.014Z,20.10
2023-02-11T04:55:08.273Z,20.30
2023-02-11T04:57:37.679Z,20.00
2023-02-11T05:00:06.190Z,19.40
2023-02-11T05:02:35.798Z,20.60
2023-02-11T05:05:04.805Z,20.70
2023-02-11T05:07:33.304Z,20.00
2023-02-11T05:10:01.341Z,19.00
2023-02-11T05:12:29.560Z,20.30
2023-02-11T05:14:57.593Z,19.90
2023-02-11T05:17:25.696Z,23.80
2023-02-11T05:19:53.876Z,19.80
2023-02-11T05:22:22.184Z,19.30
2023-02-11T05:24:50.792Z,20.00
2023-02-11T05:27:19.002Z,21.30
2023-02-11T05:29:47.192Z,24.50
2023-02-11T05:32:15.191Z,23.40
2023-02-11T05:34:43.238Z,24.30
2023-02-11T05:37:16.067Z,28.10
2023-02-11T05:39:44.034Z,25.60
2023-02-11T05:42:13.961Z,22.90
2023-02-11T05:44:41.968Z,23.90
2023-02-11T05:47:10.874Z,22.20
2023-02-11T05:49:39.561Z,22.00
2023-02-11T05:52:08.266Z,21.90
2023-02-11T05:54:37.553Z,24.70
2023-02-11T05:57:05.501Z,22.40
2023-02-11T05:59:33.405Z,24.40
2023-02-11T06:02:02.643Z,24.00
2023-02-11T06:04:30.905Z,27.00
2023-02-11T06:06:59.954Z,26.50
2023-02-11T06:09:28.815Z,27.40
2023-02-11T06:11:56.779Z,25.10
2023-02-11T06:14:24.754Z,25.80
2023-02-11T06:16:53.346Z,25.70
2023-02-11T06:19:22.988Z,28.20
2023-02-11T06:21:50.994Z,26.80
2023-02-11T06:24:38.358Z,24.40
2023-02-11T06:27:07.296Z,26.20
2023-02-11T06:29:35.404Z,28.40
2023-02-11T06:32:03.885Z,27.90
2023-02-11T06:34:32.280Z,30.20
2023-02-11T06:37:03.801Z,27.20
2023-02-11T06:39:32.735Z,27.80
2023-02-11T06:42:05.356Z,28.70
2023-02-11T06:44:34.342Z,28.70
2023-02-11T06:47:06.129Z,30.30
2023-02-11T06:49:35.070Z,33.90
2023-02-11T06:52:03.586Z,30.90
2023-02-11T06:54:31.895Z,29.90
2023-02-11T06:57:00.034Z,32.20
2023-02-11T06:59:28.141Z,30.10
2023-02-11T07:01:56.120Z,26.40
2023-02-11T07:04:24.297Z,30.10
2023-02-11T07:06:52.270Z,29.70
2023-02-11T07:09:20.997Z,26.60
2023-02-11T07:11:49.430Z,25.90
2023-02-11T07:14:17.815Z,26.40
2023-02-11T07:16:45.798Z,30.30
2023-02-11T07:19:16.852Z,26.00
2023-02-11T07:21:44.796Z,23.50
2023-02-11T07:24:16.442Z,26.20
2023-02-11T07:26:50.441Z,23.70
2023-02-11T07:29:18.415Z,25.60
2023-02-11T07:31:46.595Z,26.60
2023-02-11T07:34:16.604Z,26.80
2023-02-11T07:36:45.267Z,25.90
2023-02-11T07:39:13.640Z,26.70
2023-02-11T07:41:42.881Z,24.10
2023-02-11T07:44:11.433Z,26.30
2023-02-11T07:46:43.596Z,24.80
2023-02-11T07:49:12.207Z,26.10
2023-02-11T07:51:40.567Z,26.40
2023-02-11T07:54:08.574Z,29.60
2023-02-11T07:56:36.604Z,26.00
2023-02-11T07:59:04.764Z,24.80
2023-02-11T08:01:33.732Z,25.20
2023-02-11T08:04:02.061Z,23.90
2023-02-11T08:06:31.783Z,25.50
2023-02-11T08:09:06.169Z,29.30
2023-02-11T08:11:34.706Z,28.50
2023-02-11T08:14:02.942Z,27.90
2023-02-11T08:16:33.226Z,29.30
2023-02-11T08:19:04.438Z,27.70
2023-02-11T08:21:35.280Z,28.80
2023-02-11T08:24:04.581Z,28.10
2023-02-11T08:26:34.736Z,25.10
2023-02-11T08:29:05.813Z,28.20
2023-02-11T08:31:35.147Z,30.20
2023-02-11T08:34:03.486Z,25.80
2023-02-11T08:36:34.281Z,25.10
2023-02-11T08:39:18.218Z,27.70
2023-02-11T08:41:52.808Z,24.50
2023-02-11T08:46:50.256Z,27.00
2023-02-11T08:49:18.907Z,28.10
2023-02-11T08:51:47.513Z,26.80
2023-02-11T08:54:15.938Z,25.00
2023-02-11T08:56:44.104Z,23.90
2023-02-11T08:59:13.643Z,23.10
2023-02-11T09:01:44.174Z,21.90
2023-02-11T09:04:12.898Z,23.40
2023-02-11T09:06:44.453Z,25.90
2023-02-11T09:09:14.216Z,22.90
2023-02-11T09:11:42.926Z,24.40
2023-02-11T09:14:16.733Z,25.40
2023-02-11T09:19:13.576Z,26.40
2023-02-11T09:21:42.061Z,26.10
2023-02-11T09:24:11.244Z,28.60
2023-02-11T09:26:42.030Z,25.60
2023-02-11T09:29:12.757Z,29.10
2023-02-11T09:31:41.106Z,24.90
2023-02-11T09:34:11.105Z,29.70
2023-02-11T09:36:40.458Z,29.80
2023-02-11T09:39:12.529Z,27.60
2023-02-11T09:42:02.350Z,30.30
2023-02-11T09:44:33.266Z,30.60
2023-02-11T09:47:22.078Z,31.30
2023-02-11T09:49:54.771Z,27.00
2023-02-11T09:52:36.113Z,29.00
2023-02-11T09:55:06.875Z,31.40
2023-02-11T09:57:37.828Z,27.50
2023-02-11T10:00:27.542Z,31.00
2023-02-11T10:03:35.500Z,29.40
2023-02-11T10:06:25.352Z,32.30
2023-02-11T10:09:26.247Z,31.20
2023-02-11T10:12:35.619Z,30.60
2023-02-11T10:15:42.668Z,30.30
2023-02-11T10:18:56.352Z,25.90
2023-02-11T10:22:15.881Z,29.60
2023-02-11T10:24:59.137Z,29.40
2023-02-11T10:27:35.309Z,28.40
2023-02-11T10:30:58.304Z,28.00
2023-02-11T10:33:54.561Z,28.20
2023-02-11T10:36:31.907Z,24.70
2023-02-11T10:39:03.176Z,26.00
2023-02-11T10:41:35.213Z,27.10
2023-02-11T10:44:08.235Z,31.00
2023-02-11T10:46:40.361Z,26.00
2023-02-11T10:49:12.153Z,27.30
2023-02-11T10:51:43.221Z,28.70
2023-02-11T10:54:22.212Z,31.00
2023-02-11T10:57:00.223Z,28.50
2023-02-11T10:59:40.423Z,29.00
2023-02-11T11:10:44.764Z,29.00
2023-02-11T11:13:33.359Z,30.60
2023-02-11T11:16:13.679Z,27.10
2023-02-11T11:18:45.327Z,26.30
2023-02-11T11:21:13.401Z,29.70
2023-02-11T11:23:42.189Z,28.10
2023-02-11T11:26:14.208Z,32.00
2023-02-11T11:28:49.384Z,26.60
2023-02-11T11:31:20.919Z,27.60
2023-02-11T11:33:49.315Z,29.90
2023-02-11T11:36:21.177Z,28.00
2023-02-11T11:38:58.401Z,30.80
2023-02-11T11:41:31.016Z,26.40
2023-02-11T11:44:22.143Z,31.80
2023-02-11T11:47:15.780Z,28.30
2023-02-11T11:50:03.240Z,30.00
2023-02-11T11:52:32.017Z,29.10
2023-02-11T11:55:05.290Z,31.90
2023-02-11T11:57:34.337Z,29.30
2023-02-11T12:00:02.421Z,30.60
2023-02-11T12:02:57.591Z,30.50
2023-02-11T12:05:27.885Z,30.50
2023-02-11T12:08:24.765Z,26.90
2023-02-11T12:11:38.040Z,30.20
2023-02-11T12:14:09.619Z,25.90
2023-02-11T12:17:23.773Z,28.60
2023-02-11T12:20:12.994Z,27.60
2023-02-11T12:23:15.154Z,29.80
2023-02-11T12:25:44.690Z,28.40
2023-02-11T12:28:33.034Z,30.00
2023-02-11T12:31:20.299Z,27.60
2023-02-11T12:33:57.940Z,30.00
2023-02-11T12:36:54.494Z,25.70
2023-02-11T12:39:33.825Z,23.20
2023-02-11T12:42:52.355Z,25.40
2023-02-11T12:45:29.752Z,28.40
2023-02-11T12:48:27.238Z,25.30
2023-02-11T12:51:04.886Z,25.40
2023-02-11T12:54:06.776Z,28.20
2023-02-11T12:56:59.375Z,26.80
2023-02-11T13:00:02.006Z,28.20
2023-02-11T13:03:06.085Z,29.10
2023-02-11T13:05:38.878Z,24.40
2023-02-11T13:08:29.524Z,25.20
2023-02-11T13:11:13.854Z,27.20
2023-02-11T13:13:47.703Z,28.10
2023-02-11T13:16:22.682Z,26.50
2023-02-11T13:19:39.529Z,24.70
2023-02-11T13:22:18.373Z,25.30
2023-02-11T13:24:55.896Z,26.70
2023-02-11T13:27:38.608Z,23.90
2023-02-11T13:30:26.050Z,23.30
2023-02-11T13:32:54.521Z,26.60
2023-02-11T13:35:35.439Z,25.10
2023-02-11T13:38:18.202Z,27.30
2023-02-11T13:40:46.764Z,26.90
2023-02-11T13:43:26.418Z,26.20
2023-02-11T13:46:05.999Z,24.50
2023-02-11T13:48:37.631Z,24.80
2023-02-11T13:51:06.950Z,24.80
2023-02-11T13:54:02.609Z,22.80
2023-02-11T13:56:39.408Z,24.90
2023-02-11T13:59:26.733Z,22.00
2023-02-11T14:02:36.493Z,25.70
2023-02-11T14:05:23.266Z,25.80
2023-02-11T14:08:28.719Z,24.10
2023-02-11T14:11:12.470Z,22.40
2023-02-11T14:13:47.472Z,32.60
2023-02-11T14:16:31.603Z,23.80
2023-02-11T14:19:06.625Z,21.70
2023-02-11T14:21:46.751Z,22.80
2023-02-11T14:24:14.796Z,22.10
2023-02-11T14:27:05.153Z,21.60
2023-02-11T14:29:51.254Z,20.10
2023-02-11T14:32:43.649Z,20.60
2023-02-11T14:35:33.616Z,21.50
2023-02-11T14:38:20.822Z,18.40
2023-02-11T14:40:51.272Z,15.50
2023-02-11T14:43:22.879Z,16.20
2023-02-11T14:45:53.611Z,15.80
2023-02-11T14:48:27.426Z,14.00
2023-02-11T14:51:00.902Z,14.20
2023-02-11T14:53:30.788Z,15.50
2023-02-11T14:56:00.821Z,15.20
2023-02-11T14:58:31.599Z,17.10
2023-02-11T15:01:19.194Z,22.90
2023-02-11T15:03:48.668Z,15.80
2023-02-11T15:06:18.795Z,15.20
2023-02-11T15:09:00.909Z,16.80
2023-02-11T15:11:39.798Z,16.60
2023-02-11T15:14:23.089Z,16.20
2023-02-11T15:16:53.478Z,15.40
2023-02-11T15:19:26.909Z,17.20
2023-02-11T15:21:55.346Z,16.40
2023-02-11T15:24:34.981Z,17.40
2023-02-11T15:27:15.737Z,14.80
2023-02-11T15:29:49.651Z,15.00
2023-02-11T15:32:22.809Z,13.90
2023-02-11T15:34:52.090Z,13.50
2023-02-11T15:37:29.763Z,14.40
2023-02-11T15:40:09.651Z,17.30
2023-02-11T15:42:51.869Z,16.50
2023-02-11T15:45:24.899Z,16.50
2023-02-11T15:47:54.698Z,14.40
2023-02-11T15:50:33.105Z,15.80
2023-02-11T15:53:02.944Z,15.40
2023-02-11T15:55:37.486Z,14.10
2023-02-11T15:58:05.573Z,15.40
2023-02-11T16:00:37.348Z,15.10
2023-02-11T16:03:05.495Z,16.30
2023-02-11T16:05:35.876Z,16.00
2023-02-11T16:08:20.595Z,15.60
2023-02-11T16:11:03.303Z,15.70
2023-02-11T16:13:34.462Z,16.60
2023-02-11T16:16:05.020Z,16.70
2023-02-11T16:18:39.844Z,18.70
2023-02-11T16:21:16.154Z,16.90
2023-02-11T16:23:50.806Z,16.50
2023-02-11T16:26:23.247Z,19.60
2023-02-11T16:28:51.569Z,17.70
2023-02-11T16:31:20.747Z,19.00
2023-02-11T16:33:50.542Z,17.20
2023-02-11T16:36:19.799Z,18.40
2023-02-11T16:38:49.557Z,18.40
2023-02-11T16:41:18.251Z,17.00
2023-02-11T16:43:46.588Z,19.10
2023-02-11T16:46:16.123Z,18.00
2023-02-11T16:48:44.392Z,17.90
2023-02-11T16:51:12.634Z,19.60
2023-02-11T16:53:41.442Z,17.90
2023-02-11T16:56:15.816Z,19.70
2023-02-11T16:58:44.921Z,19.40
2023-02-11T17:01:14.202Z,18.30
2023-02-11T17:03:43.924Z,21.20
2023-02-11T17:06:13.733Z,18.70
2023-02-11T17:08:42.371Z,20.00
2023-02-11T17:11:10.524Z,20.10
2023-02-11T17:13:41.523Z,19.30
2023-02-11T17:16:29.895Z,18.50
2023-02-11T17:18:58.656Z,20.00
2023-02-11T17:21:29.730Z,19.70
2023-02-11T17:23:59.340Z,19.90
2023-02-11T17:26:27.911Z,19.50
2023-02-11T17:28:56.719Z,19.90
2023-02-11T17:31:25.028Z,20.10
2023-02-11T17:33:53.214Z,19.10
2023-02-11T17:36:21.483Z,19.30
2023-02-11T17:38:51.233Z,18.90
2023-02-11T17:41:19.535Z,18.70
2023-02-11T17:43:47.544Z,18.70
2023-02-11T17:46:15.741Z,19.20
2023-02-11T17:48:43.858Z,19.80
2023-02-11T17:51:31.640Z,17.40
2023-02-11T17:54:02.620Z,17.60
2023-02-11T17:56:35.319Z,18.00
2023-02-11T17:59:04.005Z,18.70
2023-02-11T18:01:33.219Z,16.90
2023-02-11T18:04:01.552Z,17.80
2023-02-11T18:06:29.923Z,17.70
2023-02-11T18:08:59.892Z,18.80
2023-02-11T18:11:30.597Z,18.80
2023-02-11T18:13:59.376Z,17.30
2023-02-11T18:16:28.979Z,17.40
2023-02-11T18:18:57.770Z,16.50
2023-02-11T18:21:25.903Z,18.80
2023-02-11T18:23:54.061Z,16.60
2023-02-11T18:26:22.359Z,19.20
2023-02-11T18:28:52.569Z,17.40
2023-02-11T18:31:21.969Z,19.50
2023-02-11T18:33:50.954Z,17.80
2023-02-11T18:36:20.564Z,18.30
2023-02-11T18:38:50.075Z,16.60
2023-02-11T18:41:18.082Z,18.90
2023-02-11T18:43:46.837Z,16.20
2023-02-11T18:46:15.149Z,19.30
2023-02-11T18:48:44.864Z,19.40
2023-02-11T18:51:15.139Z,18.90
2023-02-11T18:53:43.445Z,16.20
2023-02-11T18:56:17.036Z,18.00
2023-02-11T18:58:45.058Z,18.40
2023-02-11T19:01:17.982Z,17.10
2023-02-11T19:03:46.475Z,19.10
2023-02-11T19:06:19.865Z,18.80
2023-02-11T19:08:49.794Z,18.80
2023-02-11T19:11:20.052Z,16.70
2023-02-11T19:13:48.939Z,18.80
2023-02-11T19:16:19.840Z,17.30
2023-02-11T19:18:48.081Z,20.90
2023-02-11T19:21:16.670Z,18.00
2023-02-11T19:23:45.505Z,18.90
2023-02-11T19:26:13.679Z,19.90
2023-02-11T19:28:42.137Z,19.30
2023-02-11T19:31:10.443Z,19.60
2023-02-11T19:33:39.106Z,18.00
2023-02-11T19:36:08.206Z,18.60
2023-02-11T19:38:37.776Z,17.60
2023-02-11T19:41:06.079Z,18.90
2023-02-11T19:43:34.976Z,17.70
2023-02-11T19:46:04.328Z,17.00
2023-02-11T19:48:32.768Z,17.90
2023-02-11T19:51:13.122Z,20.30
2023-02-11T19:53:42.337Z,18.50
2023-02-11T19:56:11.169Z,18.50
2023-02-11T19:58:40.618Z,17.30
2023-02-11T20:01:13.530Z,20.90
2023-02-11T20:03:42.791Z,17.90
2023-02-11T20:06:14.070Z,23.00
2023-02-11T20:08:44.610Z,18.20
2023-02-11T20:11:17.595Z,18.30
2023-02-11T20:13:51.085Z,21.70
2023-02-11T20:16:21.925Z,20.00
2023-02-11T20:18:50.613Z,20.60
2023-02-11T20:21:23.717Z,19.70
2023-02-11T20:23:53.432Z,21.00
2023-02-11T20:26:22.506Z,21.00
2023-02-11T20:28:51.555Z,23.60
2023-02-11T20:31:19.988Z,21.90
2023-02-11T20:33:49.010Z,19.60
2023-02-11T20:36:21.293Z,20.50
2023-02-11T20:38:49.634Z,20.70
2023-02-11T20:41:31.036Z,19.90
2023-02-11T20:44:00.696Z,19.60
2023-02-11T20:46:31.030Z,24.50
2023-02-11T20:48:59.302Z,23.20
2023-02-11T20:51:30.517Z,21.10
2023-02-11T20:53:58.848Z,20.20
2023-02-11T20:56:34.517Z,20.20
2023-02-11T20:59:05.527Z,20.10
2023-02-11T21:01:40.674Z,20.80
2023-02-11T21:04:19.556Z,21.90
2023-02-11T21:06:55.804Z,23.60
2023-02-11T21:09:28.727Z,20.60
2023-02-11T21:12:05.631Z,19.80
2023-02-11T21:14:37.667Z,24.60
2023-02-11T21:17:08.895Z,19.60
2023-02-11T21:19:41.599Z,23.10
2023-02-11T21:22:12.560Z,22.90
2023-02-11T21:24:44.687Z,22.90
2023-02-11T21:27:21.705Z,22.50
2023-02-11T21:29:54.795Z,22.20
2023-02-11T21:32:26.671Z,21.90
2023-02-11T21:34:59.531Z,21.10
2023-02-11T21:37:33.570Z,21.80
2023-02-11T21:40:05.638Z,21.10
2023-02-11T21:42:39.684Z,20.50
2023-02-11T21:45:18.704Z,22.20
2023-02-11T21:47:51.459Z,22.70
2023-02-11T21:50:22.843Z,22.10
2023-02-11T21:52:54.629Z,20.90
2023-02-11T22:03:32.847Z,21.20
2023-02-11T22:06:06.307Z,21.30
2023-02-11T22:08:34.376Z,22.50
2023-02-11T22:11:06.554Z,20.60
2023-02-11T22:13:35.229Z,20.50
2023-02-11T22:16:11.357Z,22.20
2023-02-11T22:18:40.181Z,21.80
2023-02-11T22:21:13.828Z,20.20
2023-02-11T22:23:41.840Z,20.20
2023-02-11T22:26:16.386Z,21.00
2023-02-11T22:28:44.607Z,22.30
2023-02-11T22:31:14.756Z,24.70
2023-02-11T22:33:43.218Z,22.40
2023-02-11T22:36:17.050Z,24.40
2023-02-11T22:38:45.284Z,22.50
2023-02-11T22:41:13.571Z,21.50
2023-02-11T22:43:43.337Z,25.50
2023-02-11T22:46:13.270Z,21.70
2023-02-11T22:48:41.382Z,20.20
2023-02-11T22:51:15.420Z,22.80
2023-02-11T22:53:46.296Z,20.70
2023-02-11T22:56:15.805Z,20.70
2023-02-11T22:58:44.032Z,20.40
2023-02-11T23:01:12.912Z,21.60
2023-02-11T23:03:41.976Z,20.20
2023-02-11T23:06:10.521Z,23.60
2023-02-11T23:08:40.189Z,22.20
2023-02-11T23:11:10.269Z,20.80
2023-02-11T23:13:40.797Z,18.80
2023-02-11T23:16:11.352Z,21.70
2023-02-11T23:18:40.372Z,18.10
2023-02-11T23:21:12.794Z,19.80
2023-02-11T23:23:41.648Z,20.20
2023-02-11T23:26:13.296Z,16.60
2023-02-11T23:28:41.561Z,18.30
2023-02-11T23:31:25.084Z,18.70
2023-02-11T23:33:53.524Z,15.20
2023-02-11T23:36:21.770Z,19.10
2023-02-11T23:38:52.726Z,19.00
2023-02-11T23:41:20.979Z,18.40
2023-02-11T23:43:53.606Z,17.20
2023-02-11T23:46:22.345Z,18.60
2023-02-11T23:48:52.433Z,18.40
2023-02-11T23:51:21.563Z,15.50
2023-02-11T23:53:52.710Z,16.80
2023-02-11T23:56:26.687Z,17.20
2023-02-11T23:58:56.390Z,15.60
